Time;durP1;ratioP1;P1;durP2;ratioP2;P2;SDS_P1;SDS_P2;PMS_P1;PMS_P2;Temp;Humidity;BMP_temperature;BMP_pressure;BME280_temperature;BME280_humidity;BME280_pressure;Samples;Min_cycle;Max_cycle;Signal;HPM_P1;HPM_P2
2022/05/13 00:02:22;;;;;;;11.43;3.93;;;11.80;99.90;;;;;;5104354;28;20430;-54
2022/05/13 00:04:48;;;;;;;12.10;3.43;;;11.80;99.90;;;;;;5104330;27;20677;-53
2022/05/13 00:07:14;;;;;;;12.93;3.60;;;11.80;99.90;;;;;;5100823;27;20196;-53
2022/05/13 00:10:00;;;;;;;7.93;3.80;;;11.70;99.90;;;;;;5108539;28;20207;-54
2022/05/13 00:12:29;;;;;;;11.40;3.57;;;11.70;99.90;;;;;;5106611;27;20449;-54
2022/05/13 00:14:56;;;;;;;6.17;3.07;;;11.70;99.90;;;;;;5106134;28;20440;-54
2022/05/13 00:17:22;;;;;;;6.13;2.97;;;11.70;99.90;;;;;;5108901;28;20418;-54
2022/05/13 00:19:48;;;;;;;11.13;3.53;;;11.70;99.90;;;;;;5100344;28;20466;-54
2022/05/13 00:22:14;;;;;;;6.47;3.70;;;11.70;99.90;;;;;;5100630;28;21261;-54
2022/05/13 00:24:40;;;;;;;10.70;3.50;;;11.70;99.90;;;;;;5098872;27;20230;-54
2022/05/13 00:27:06;;;;;;;12.07;3.40;;;11.60;99.90;;;;;;5107770;28;20528;-54
2022/05/13 00:29:32;;;;;;;9.70;3.63;;;11.60;99.90;;;;;;5104338;28;20434;-54
2022/05/13 00:31:58;;;;;;;11.20;3.20;;;11.60;99.90;;;;;;5098622;28;20450;-55
2022/05/13 00:34:24;;;;;;;10.80;3.77;;;11.50;99.90;;;;;;5103668;28;20501;-54
2022/05/13 00:36:50;;;;;;;9.03;3.40;;;11.40;99.90;;;;;;5105380;27;20193;-54
2022/05/13 00:39:16;;;;;;;8.80;3.47;;;11.40;99.90;;;;;;5105957;28;20446;-54
2022/05/13 00:41:42;;;;;;;5.20;3.23;;;11.50;99.90;;;;;;5106197;28;20446;-54
2022/05/13 00:44:08;;;;;;;7.90;3.50;;;11.40;99.90;;;;;;5104571;27;20199;-53
2022/05/13 00:46:34;;;;;;;8.33;3.80;;;11.40;99.90;;;;;;5101831;28;20247;-54
2022/05/13 00:49:03;;;;;;;8.17;3.53;;;11.40;1.00;;;;;;5102378;28;20466;-54
2022/05/13 00:51:39;;;;;;;9.67;3.87;;;11.30;1.00;;;;;;5098068;28;20805;-54
2022/05/13 00:54:06;;;;;;;9.47;3.40;;;11.30;1.00;;;;;;5098264;28;20465;-54
2022/05/13 00:56:32;;;;;;;16.07;4.27;;;11.30;1.00;;;;;;5107473;28;20919;-54
2022/05/13 00:59:01;;;;;;;8.80;4.10;;;11.20;1.00;;;;;;5103483;27;20430;-54
2022/05/13 01:01:28;;;;;;;8.63;3.40;;;11.20;1.00;;;;;;5105236;28;20426;-54
2022/05/13 01:04:01;;;;;;;11.43;3.40;;;11.20;1.00;;;;;;5099577;28;20567;-54
2022/05/13 01:06:27;;;;;;;6.77;3.50;;;11.20;1.00;;;;;;5102446;28;20481;-54
2022/05/13 01:08:53;;;;;;;8.60;3.60;;;11.20;1.00;;;;;;5106931;27;20477;-54
2022/05/13 01:11:22;;;;;;;7.00;3.20;;;11.30;1.00;;;;;;5100672;28;20434;-54
2022/05/13 01:13:51;;;;;;;16.43;4.00;;;11.30;1.00;;;;;;5101130;28;20543;-54
2022/05/13 01:16:17;;;;;;;10.57;3.67;;;11.40;1.00;;;;;;5101289;27;20785;-54
2022/05/13 01:18:46;;;;;;;13.40;4.00;;;11.40;1.00;;;;;;5107360;27;20487;-53
2022/05/13 01:21:15;;;;;;;12.10;4.03;;;11.30;1.00;;;;;;5102093;28;20446;-53
2022/05/13 01:23:44;;;;;;;7.13;3.67;;;11.30;1.00;;;;;;5101646;28;20454;-54
2022/05/13 01:26:11;;;;;;;11.77;3.63;;;11.30;1.00;;;;;;5102273;28;20438;-54
2022/05/13 01:28:50;;;;;;;13.10;3.43;;;11.30;1.00;;;;;;5094573;28;20893;-50
2022/05/13 01:31:31;;;;;;;18.87;4.70;;;11.30;1.00;;;;;;5101248;27;20433;-50
2022/05/13 01:33:59;;;;;;;12.10;3.87;;;11.30;1.00;;;;;;5101605;28;20461;-50
2022/05/13 01:36:25;;;;;;;8.40;3.70;;;11.30;1.00;;;;;;5105434;28;20537;-50
2022/05/13 01:38:51;;;;;;;6.67;4.00;;;11.20;1.00;;;;;;5097997;28;20434;-50
2022/05/13 01:41:17;;;;;;;8.40;3.60;;;11.10;1.00;;;;;;5100022;28;20941;-50
2022/05/13 01:43:44;;;;;;;8.17;3.73;;;11.00;1.00;;;;;;5105062;28;20449;-50
2022/05/13 01:46:11;;;;;;;5.40;4.50;;;11.00;1.00;;;;;;5103410;28;20435;-51
2022/05/13 01:48:37;;;;;;;11.70;3.80;;;11.00;1.00;;;;;;5098532;28;20450;-50
2022/05/13 01:51:03;;;;;;;11.43;4.73;;;11.00;1.00;;;;;;5101405;28;20465;-50
2022/05/13 01:53:29;;;;;;;5.53;3.50;;;11.00;1.00;;;;;;5105245;28;20863;-50
2022/05/13 01:55:55;;;;;;;9.87;4.00;;;11.00;1.00;;;;;;5099624;28;20487;-50
2022/05/13 01:58:23;;;;;;;9.63;4.10;;;11.00;1.00;;;;;;5104210;28;20433;-51
2022/05/13 02:00:52;;;;;;;13.97;4.30;;;11.10;1.00;;;;;;5099223;28;20199;-50
2022/05/13 02:06:03;;;;;;;11.43;4.20;;;11.00;1.00;;;;;;5101843;28;20453;-50
2022/05/13 02:08:30;;;;;;;15.00;4.80;;;11.00;1.00;;;;;;5099968;28;20473;-50
2022/05/13 02:10:56;;;;;;;11.63;4.43;;;11.00;1.00;;;;;;5099958;28;20919;-50
2022/05/13 02:13:21;;;;;;;10.93;4.67;;;11.00;1.00;;;;;;5097593;28;20517;-50
2022/05/13 02:15:47;;;;;;;9.73;4.37;;;10.90;1.00;;;;;;5094430;28;20611;-50
2022/05/13 02:18:13;;;;;;;10.33;4.03;;;10.90;1.00;;;;;;5104420;28;20879;-50
2022/05/13 02:20:40;;;;;;;13.60;4.50;;;10.90;1.00;;;;;;5099750;28;20274;-50
2022/05/13 02:23:06;;;;;;;8.37;4.07;;;10.90;1.00;;;;;;5102799;28;20253;-50
2022/05/13 02:25:33;;;;;;;9.90;4.30;;;10.90;1.00;;;;;;5101817;28;20441;-51
2022/05/13 02:27:59;;;;;;;8.90;4.03;;;10.90;1.00;;;;;;5102256;28;20453;-50
2022/05/13 02:30:27;;;;;;;9.20;4.20;;;10.90;1.00;;;;;;5098193;28;20818;-51
2022/05/13 02:32:53;;;;;;;10.23;4.20;;;10.80;1.00;;;;;;5099429;28;20474;-50
2022/05/13 02:35:19;;;;;;;14.20;4.60;;;10.80;1.00;;;;;;5104392;28;20480;-50
2022/05/13 02:37:45;;;;;;;6.20;4.30;;;10.70;1.00;;;;;;5101546;28;20494;-50
2022/05/13 02:40:11;;;;;;;11.50;5.13;;;10.70;1.00;;;;;;5102285;28;20265;-50
2022/05/13 02:42:37;;;;;;;10.73;5.10;;;10.60;1.00;;;;;;5100234;28;20474;-51
2022/05/13 02:45:04;;;;;;;11.40;5.20;;;10.70;1.00;;;;;;5107492;28;20437;-51
2022/05/13 02:47:29;;;;;;;13.30;5.70;;;10.70;1.00;;;;;;5104435;28;20464;-50
2022/05/13 02:52:39;;;;;;;10.40;4.70;;;10.70;1.00;;;;;;5104538;28;20775;-50
2022/05/13 02:55:06;;;;;;;8.30;4.80;;;10.70;1.00;;;;;;5102656;28;20434;-50
2022/05/13 02:57:32;;;;;;;8.93;5.10;;;10.70;1.00;;;;;;5103075;27;20184;-53
2022/05/13 02:59:59;;;;;;;10.63;5.30;;;10.70;1.00;;;;;;5111157;28;20475;-50
2022/05/13 03:02:25;;;;;;;11.80;5.07;;;10.60;1.00;;;;;;5107010;28;20184;-50
2022/05/13 03:04:50;;;;;;;14.63;5.63;;;10.50;1.00;;;;;;5108352;28;20425;-50
2022/05/13 03:07:16;;;;;;;15.03;5.53;;;10.50;1.00;;;;;;5099757;27;20435;-50
2022/05/13 03:09:41;;;;;;;12.87;4.90;;;10.50;1.00;;;;;;5105980;28;20668;-50
2022/05/13 03:12:07;;;;;;;9.50;4.53;;;10.50;1.00;;;;;;5105624;28;20196;-50
2022/05/13 03:14:33;;;;;;;12.93;5.20;;;10.50;1.00;;;;;;5108116;27;20316;-50
2022/05/13 03:16:58;;;;;;;13.33;5.13;;;10.60;1.00;;;;;;5108785;27;20420;-50
2022/05/13 03:19:24;;;;;;;9.23;5.00;;;10.70;1.00;;;;;;5108427;28;20236;-50
2022/05/13 03:21:49;;;;;;;9.90;5.10;;;10.80;1.00;;;;;;5108245;28;20197;-50
2022/05/13 03:24:15;;;;;;;8.07;5.10;;;10.90;1.00;;;;;;5107215;27;20687;-54
2022/05/13 03:26:40;;;;;;;15.93;5.00;;;11.00;1.00;;;;;;5106408;28;20196;-50
2022/05/13 03:29:06;;;;;;;14.30;5.20;;;11.10;1.00;;;;;;5106685;28;20318;-50
2022/05/13 03:31:34;;;;;;;13.30;5.00;;;11.10;1.00;;;;;;5103845;28;20682;-50
2022/05/13 03:34:00;;;;;;;8.80;5.10;;;11.10;1.00;;;;;;5101694;28;20216;-50
2022/05/13 03:36:26;;;;;;;9.00;5.07;;;11.20;1.00;;;;;;5105408;28;20431;-50
2022/05/13 03:38:51;;;;;;;14.30;5.23;;;11.20;1.00;;;;;;5103293;28;20946;-50
2022/05/13 03:41:17;;;;;;;7.70;4.97;;;11.20;1.00;;;;;;5106286;27;20189;-51
2022/05/13 03:43:43;;;;;;;15.47;5.30;;;11.30;1.00;;;;;;5103925;27;20200;-50
2022/05/13 03:46:08;;;;;;;11.10;5.50;;;11.30;1.00;;;;;;5108008;28;20225;-50
2022/05/13 03:48:34;;;;;;;11.20;5.30;;;11.20;1.00;;;;;;5096336;28;20219;-50
2022/05/13 03:51:00;;;;;;;19.80;5.50;;;11.30;1.00;;;;;;5102775;28;20581;-51
2022/05/13 03:53:26;;;;;;;7.00;4.87;;;11.20;1.00;;;;;;5104728;27;20227;-50
2022/05/13 03:55:52;;;;;;;11.83;5.53;;;11.20;1.00;;;;;;5108728;28;20431;-51
2022/05/13 03:58:17;;;;;;;17.67;5.67;;;11.30;1.00;;;;;;5106473;28;20195;-50
2022/05/13 04:00:45;;;;;;;10.00;5.10;;;11.30;1.00;;;;;;5107907;28;20642;-50
2022/05/13 04:03:11;;;;;;;9.93;5.00;;;11.40;1.00;;;;;;5104593;28;20197;-50
2022/05/13 04:11:05;;;;;;;10.13;6.00;;;11.40;99.90;;;;;;5098809;28;20438;-50
2022/05/13 04:16:15;;;;;;;9.23;5.20;;;11.50;99.90;;;;;;5108744;28;20206;-50
2022/05/13 04:18:44;;;;;;;10.50;5.83;;;11.50;99.90;;;;;;5078826;28;20490;-50
2022/05/13 04:21:13;;;;;;;12.23;5.10;;;11.50;99.90;;;;;;5099343;28;20434;-50
2022/05/13 04:23:42;;;;;;;9.80;4.63;;;11.50;99.90;;;;;;5105243;28;20847;-50
2022/05/13 04:26:12;;;;;;;9.97;5.17;;;11.50;99.90;;;;;;5108938;27;20433;-50
2022/05/13 04:28:41;;;;;;;13.60;5.33;;;11.50;99.90;;;;;;5106016;27;20446;-50
2022/05/13 04:31:07;;;;;;;12.20;5.93;;;11.50;99.90;;;;;;5105474;28;20442;-50
2022/05/13 04:33:33;;;;;;;13.73;5.57;;;11.50;99.90;;;;;;5101966;28;20454;-50
2022/05/13 04:35:58;;;;;;;9.13;5.60;;;11.60;99.90;;;;;;5103626;28;20484;-50
2022/05/13 04:38:24;;;;;;;12.50;5.73;;;11.60;99.90;;;;;;5107663;28;20202;-57
2022/05/13 04:40:49;;;;;;;9.10;4.67;;;11.60;99.90;;;;;;5103742;28;20567;-50
2022/05/13 04:43:15;;;;;;;13.27;5.40;;;11.70;99.90;;;;;;5105931;28;20196;-50
2022/05/13 04:45:42;;;;;;;16.40;5.60;;;11.70;99.90;;;;;;5083626;28;20200;-50
2022/05/13 04:48:16;;;;;;;11.07;5.03;;;11.80;99.90;;;;;;5107543;28;20200;-50
2022/05/13 04:50:46;;;;;;;13.33;5.43;;;11.70;99.90;;;;;;5108527;27;20829;-51
2022/05/13 04:53:12;;;;;;;10.40;4.70;;;11.80;99.90;;;;;;5105149;28;20529;-51
2022/05/13 04:55:40;;;;;;;8.47;4.87;;;11.80;99.90;;;;;;5106136;28;20430;-50
2022/05/13 04:58:05;;;;;;;10.17;5.70;;;11.80;99.90;;;;;;5106449;28;20457;-50
2022/05/13 05:00:31;;;;;;;19.23;6.20;;;11.80;99.90;;;;;;5107088;28;20472;-50
2022/05/13 05:02:57;;;;;;;13.93;5.40;;;11.80;99.90;;;;;;5098955;28;20251;-50
2022/05/13 05:05:23;;;;;;;9.53;4.80;;;11.70;99.90;;;;;;5108266;28;20185;-50
2022/05/13 05:07:49;;;;;;;10.50;4.80;;;11.80;99.90;;;;;;5106711;28;20196;-50
2022/05/13 05:10:15;;;;;;;7.67;4.87;;;11.80;99.90;;;;;;5108078;28;20795;-50
2022/05/13 05:12:41;;;;;;;11.97;5.50;;;11.90;99.90;;;;;;5085649;27;20199;-50
2022/05/13 05:15:08;;;;;;;11.30;5.80;;;11.90;99.90;;;;;;5096039;28;20431;-50
2022/05/13 05:17:34;;;;;;;10.87;5.27;;;11.90;99.90;;;;;;5101147;28;20211;-50
2022/05/13 05:19:59;;;;;;;13.40;5.37;;;11.80;99.90;;;;;;5098648;28;20482;-50
2022/05/13 05:22:25;;;;;;;9.70;5.70;;;11.80;99.90;;;;;;5103648;27;20200;-50
2022/05/13 05:24:50;;;;;;;20.47;5.50;;;11.80;99.90;;;;;;5098768;27;20203;-50
2022/05/13 05:27:17;;;;;;;18.10;6.40;;;11.80;99.90;;;;;;5106329;28;20722;-50
2022/05/13 05:29:44;;;;;;;9.23;5.30;;;11.80;99.90;;;;;;5103801;28;20654;-50
2022/05/13 05:32:10;;;;;;;18.27;6.00;;;11.80;99.90;;;;;;5098472;28;20475;-50
2022/05/13 05:34:36;;;;;;;7.80;5.23;;;11.80;99.90;;;;;;5101401;28;20583;-50
2022/05/13 05:37:01;;;;;;;53.93;7.37;;;11.70;99.90;;;;;;5106749;28;20188;-50
2022/05/13 05:39:27;;;;;;;30.67;7.13;;;11.70;99.90;;;;;;5102986;28;20206;-50
2022/05/13 05:41:52;;;;;;;12.47;5.70;;;11.70;99.90;;;;;;5108034;28;20218;-50
2022/05/13 05:44:18;;;;;;;18.73;5.53;;;11.70;99.90;;;;;;5103326;28;20207;-50
2022/05/13 05:46:44;;;;;;;15.30;5.23;;;11.70;99.90;;;;;;5105876;28;20223;-54
2022/05/13 05:49:10;;;;;;;9.87;5.03;;;11.80;99.90;;;;;;5104019;28;20192;-53
2022/05/13 05:51:36;;;;;;;12.53;5.67;;;11.80;99.90;;;;;;5103854;28;20574;-53
2022/05/13 05:59:30;;;;;;;15.90;5.03;;;12.00;99.90;;;;;;5101513;28;20436;-54
2022/05/13 06:01:55;;;;;;;23.53;5.90;;;12.00;99.90;;;;;;5096108;28;20919;-54
2022/05/13 06:04:21;;;;;;;13.37;4.90;;;12.10;99.90;;;;;;5103732;28;20284;-54
2022/05/13 06:06:47;;;;;;;14.10;5.17;;;12.20;99.90;;;;;;5108078;28;20180;-54
2022/05/13 06:09:12;;;;;;;12.33;5.80;;;12.20;99.90;;;;;;5096452;28;20411;-54
2022/05/13 06:11:38;;;;;;;11.60;5.90;;;12.20;99.90;;;;;;5108090;28;20231;-55
2022/05/13 06:14:04;;;;;;;8.10;5.30;;;12.20;99.90;;;;;;5106980;28;20721;-53
2022/05/13 06:16:30;;;;;;;14.27;5.93;;;12.20;99.90;;;;;;5105277;28;20197;-53
2022/05/13 06:19:01;;;;;;;16.50;5.40;;;12.10;99.90;;;;;;5099552;28;20439;-54
2022/05/13 06:21:34;;;;;;;9.73;5.10;;;12.10;99.90;;;;;;5095140;28;20189;-54
2022/05/13 06:24:00;;;;;;;12.70;5.10;;;12.10;99.90;;;;;;5104983;28;20459;-52
2022/05/13 06:26:25;;;;;;;12.87;5.70;;;12.10;99.90;;;;;;5098976;28;20911;-52
2022/05/13 06:28:51;;;;;;;17.73;5.50;;;12.10;99.90;;;;;;5109810;28;20436;-53
2022/05/13 06:31:18;;;;;;;20.73;5.23;;;12.10;99.90;;;;;;5106976;28;20613;-54
2022/05/13 06:33:45;;;;;;;15.43;5.50;;;12.10;99.90;;;;;;5109707;27;20207;-54
2022/05/13 06:36:11;;;;;;;15.70;5.33;;;12.10;99.90;;;;;;5108130;28;20470;-54
2022/05/13 06:38:38;;;;;;;16.27;4.87;;;12.20;99.90;;;;;;5108124;27;21335;-54
2022/05/13 06:41:03;;;;;;;12.67;5.70;;;12.10;99.90;;;;;;5099648;28;20927;-54
2022/05/13 06:43:29;;;;;;;13.20;5.77;;;12.10;99.90;;;;;;5108704;28;20441;-54
2022/05/13 06:45:55;;;;;;;10.63;5.70;;;12.10;99.90;;;;;;5104377;28;20196;-55
2022/05/13 06:48:21;;;;;;;11.23;5.57;;;12.20;99.90;;;;;;5098256;27;20191;-54
2022/05/13 06:50:47;;;;;;;15.63;6.60;;;12.20;99.90;;;;;;5103682;27;20438;-54
2022/05/13 06:53:14;;;;;;;10.90;5.60;;;12.20;99.90;;;;;;5104058;28;20463;-54
2022/05/13 06:55:41;;;;;;;13.70;5.80;;;12.30;99.90;;;;;;5105435;28;20480;-54
2022/05/13 06:58:07;;;;;;;11.53;6.30;;;12.30;99.90;;;;;;5099258;28;20463;-59
2022/05/13 07:00:33;;;;;;;11.00;5.77;;;12.30;99.90;;;;;;5101280;28;20974;-54
2022/05/13 07:02:58;;;;;;;8.10;5.57;;;12.30;99.90;;;;;;5110260;28;20200;-54
2022/05/13 07:05:24;;;;;;;10.70;5.83;;;12.30;99.90;;;;;;5101862;28;20522;-54
2022/05/13 07:07:49;;;;;;;9.40;5.10;;;12.40;99.90;;;;;;5110496;28;20206;-54
2022/05/13 07:10:16;;;;;;;9.33;5.47;;;12.30;99.90;;;;;;5100779;28;20192;-54
2022/05/13 07:12:42;;;;;;;10.67;7.00;;;12.30;99.90;;;;;;5108952;28;20221;-53
2022/05/13 07:15:11;;;;;;;9.37;5.50;;;12.30;99.90;;;;;;5109785;28;20461;-54
2022/05/13 07:17:37;;;;;;;12.13;5.80;;;12.30;99.90;;;;;;5109809;28;20246;-54
2022/05/13 07:20:04;;;;;;;13.03;5.93;;;12.30;99.90;;;;;;5105852;28;20974;-54
2022/05/13 07:22:30;;;;;;;6.13;5.53;;;12.40;99.90;;;;;;5103826;28;20448;-55
2022/05/13 07:24:55;;;;;;;11.27;5.43;;;12.50;99.90;;;;;;5100615;28;20426;-55
2022/05/13 07:27:21;;;;;;;10.63;5.90;;;12.50;99.90;;;;;;5110675;28;20600;-53
2022/05/13 07:29:46;;;;;;;11.33;5.70;;;12.60;99.90;;;;;;5106403;28;20211;-54
2022/05/13 07:32:12;;;;;;;9.90;5.40;;;12.70;99.90;;;;;;5105638;28;20201;-54
2022/05/13 07:34:38;;;;;;;8.37;5.80;;;12.80;99.90;;;;;;5107102;28;20903;-54
2022/05/13 07:37:04;;;;;;;14.27;5.97;;;12.90;99.90;;;;;;5101306;28;20309;-54
2022/05/13 07:42:14;;;;;;;12.60;5.90;;;12.90;99.90;;;;;;5104592;28;20192;-53
2022/05/13 07:44:39;;;;;;;11.70;5.93;;;12.90;99.90;;;;;;5106619;28;20900;-54
2022/05/13 07:47:07;;;;;;;17.00;6.17;;;12.90;99.90;;;;;;5103391;28;20208;-55
2022/05/13 07:49:34;;;;;;;12.30;5.80;;;12.90;99.90;;;;;;5104870;28;20189;-54
2022/05/13 07:52:00;;;;;;;13.03;6.60;;;12.90;99.90;;;;;;5110783;28;20511;-53
2022/05/13 07:54:26;;;;;;;15.23;6.10;;;13.20;99.90;;;;;;5099834;28;20476;-54
2022/05/13 07:56:52;;;;;;;10.83;6.00;;;13.30;99.90;;;;;;5109677;28;20770;-54
2022/05/13 07:59:17;;;;;;;10.13;5.43;;;13.30;99.90;;;;;;5101047;28;20231;-54
2022/05/13 08:01:43;;;;;;;8.03;5.50;;;13.30;99.90;;;;;;5108150;28;20185;-54
2022/05/13 08:04:11;;;;;;;17.00;5.43;;;13.40;99.90;;;;;;5107166;28;20238;-54
2022/05/13 08:06:37;;;;;;;13.40;5.80;;;13.50;99.90;;;;;;5106830;28;22078;-53
2022/05/13 08:09:03;;;;;;;10.80;5.40;;;13.50;99.90;;;;;;5107466;28;20426;-54
2022/05/13 08:11:29;;;;;;;17.40;6.00;;;13.60;99.90;;;;;;5100184;28;20189;-54
2022/05/13 08:13:56;;;;;;;12.70;5.33;;;13.70;99.90;;;;;;5108132;28;20289;-53
2022/05/13 08:16:26;;;;;;;12.70;6.07;;;13.70;99.90;;;;;;5098938;28;20427;-55
2022/05/13 08:18:52;;;;;;;11.60;5.80;;;13.60;99.90;;;;;;5103005;28;20431;-53
2022/05/13 08:21:18;;;;;;;10.70;5.70;;;13.60;99.90;;;;;;5103069;28;20430;-54
2022/05/13 08:23:44;;;;;;;18.33;6.23;;;13.60;99.90;;;;;;5112154;28;20426;-54
2022/05/13 08:26:11;;;;;;;15.30;6.53;;;13.60;99.90;;;;;;5099082;28;20439;-54
2022/05/13 08:28:38;;;;;;;13.67;6.23;;;13.60;99.90;;;;;;5104813;28;20453;-53
2022/05/13 08:31:03;;;;;;;13.57;6.07;;;13.60;99.90;;;;;;5102473;28;20537;-53
2022/05/13 08:33:29;;;;;;;17.67;6.10;;;13.50;99.90;;;;;;5103776;28;21042;-51
2022/05/13 08:35:58;;;;;;;15.33;6.23;;;13.50;99.90;;;;;;5094947;28;20196;-53
2022/05/13 08:38:27;;;;;;;15.90;5.80;;;13.60;99.90;;;;;;5099308;28;20426;-53
2022/05/13 08:41:10;;;;;;;13.97;6.83;;;13.70;99.90;;;;;;5108298;28;20454;-54
2022/05/13 08:43:39;;;;;;;13.80;6.20;;;13.90;99.90;;;;;;5098589;28;20583;-54
2022/05/13 08:46:09;;;;;;;14.30;6.57;;;14.10;99.90;;;;;;5107875;28;20438;-53
2022/05/13 08:48:51;;;;;;;21.67;6.33;;;14.30;99.90;;;;;;5086964;28;20419;-53
2022/05/13 08:51:29;;;;;;;14.57;6.23;;;14.60;99.90;;;;;;5105172;28;20418;-54
2022/05/13 08:54:14;;;;;;;17.27;6.10;;;14.70;99.90;;;;;;5101770;28;20474;-54
2022/05/13 08:56:46;;;;;;;24.93;7.20;;;14.70;99.90;;;;;;5105445;28;20474;-53
2022/05/13 08:59:23;;;;;;;18.93;6.10;;;14.70;99.90;;;;;;5105768;28;20406;-54
2022/05/13 09:02:06;;;;;;;14.17;6.37;;;14.70;99.90;;;;;;5102160;28;20436;-54
2022/05/13 09:04:36;;;;;;;13.67;6.23;;;14.70;99.90;;;;;;5099920;28;20410;-54
2022/05/13 09:07:05;;;;;;;21.43;6.67;;;14.80;99.90;;;;;;5102300;28;20597;-53
2022/05/13 09:09:32;;;;;;;18.20;6.10;;;15.10;99.90;;;;;;5104176;28;20457;-54
2022/05/13 09:12:03;;;;;;;10.30;5.73;;;15.30;99.90;;;;;;5094973;28;20510;-53
2022/05/13 09:14:43;;;;;;;15.33;5.87;;;15.60;99.90;;;;;;5101900;28;20498;-53
2022/05/13 09:17:30;;;;;;;18.20;7.03;;;16.00;99.90;;;;;;5098278;28;20439;-53
2022/05/13 09:20:00;;;;;;;13.70;5.87;;;16.20;99.90;;;;;;5098137;28;20592;-53
2022/05/13 09:22:38;;;;;;;21.90;6.20;;;16.50;99.90;;;;;;5105462;28;20958;-53
2022/05/13 09:25:04;;;;;;;15.70;6.30;;;17.00;99.90;;;;;;5103130;28;20431;-53
2022/05/13 09:27:44;;;;;;;15.90;5.90;;;17.30;99.90;;;;;;5103869;28;20527;-54
2022/05/13 09:30:11;;;;;;;14.70;5.93;;;17.50;99.90;;;;;;5096172;28;20439;-53
2022/05/13 09:32:37;;;;;;;14.63;5.60;;;17.60;99.90;;;;;;5108064;28;20442;-53
2022/05/13 09:35:19;;;;;;;17.70;6.20;;;17.70;99.90;;;;;;5098539;28;20462;-53
2022/05/13 09:37:45;;;;;;;18.87;5.80;;;17.80;99.90;;;;;;5108095;28;20188;-53
2022/05/13 09:40:21;;;;;;;11.63;5.50;;;17.60;99.90;;;;;;5097353;28;20439;-53
2022/05/13 09:42:50;;;;;;;23.77;5.90;;;17.40;99.90;;;;;;5096292;28;20437;-53
2022/05/13 09:45:19;;;;;;;13.93;5.33;;;17.30;99.90;;;;;;5103019;28;20831;-53
2022/05/13 09:47:58;;;;;;;16.23;6.40;;;17.10;99.90;;;;;;5107277;28;20430;-53
2022/05/13 09:50:31;;;;;;;11.70;6.17;;;17.10;99.90;;;;;;5097810;28;20422;-54
2022/05/13 09:53:04;;;;;;;16.03;6.27;;;17.10;99.90;;;;;;5104993;28;20987;-54
2022/05/13 09:55:40;;;;;;;23.50;6.80;;;17.20;99.90;;;;;;5098686;28;20430;-53
2022/05/13 09:58:16;;;;;;;16.33;6.17;;;17.20;99.90;;;;;;5106851;28;20501;-53
2022/05/13 10:00:43;;;;;;;13.77;6.00;;;17.10;99.90;;;;;;5100185;28;21075;-54
2022/05/13 10:03:33;;;;;;;13.13;5.73;;;17.00;99.90;;;;;;5095462;28;20457;-52
2022/05/13 10:06:10;;;;;;;19.00;5.83;;;16.90;99.90;;;;;;5097481;28;20456;-53
2022/05/13 10:13:57;;;;;;;12.50;5.83;;;16.70;99.90;;;;;;5102165;28;20430;-54
2022/05/13 10:14:40;;;;;;;12.73;5.83;;;16.60;99.90;;;;;;5097865;28;20559;-54
2022/05/13 10:17:25;;;;;;;14.83;5.80;;;16.70;99.90;;;;;;5105553;28;20453;-53
2022/05/13 10:20:06;;;;;;;24.60;6.30;;;16.60;99.90;;;;;;5101369;28;20564;-53
2022/05/13 10:22:51;;;;;;;16.70;6.37;;;16.40;99.90;;;;;;5105743;28;20761;-53
2022/05/13 10:25:49;;;;;;;16.23;6.40;;;15.90;99.90;;;;;;5103842;28;20429;-53
2022/05/13 10:28:19;;;;;;;11.73;6.30;;;15.60;99.90;;;;;;5095238;28;21154;-54
2022/05/13 10:30:49;;;;;;;20.40;7.60;;;15.40;99.90;;;;;;5099515;28;20502;-55
2022/05/13 10:33:26;;;;;;;20.97;7.50;;;14.80;99.90;;;;;;5105343;28;20489;-61
2022/05/13 10:36:01;;;;;;;24.83;7.00;;;14.40;99.90;;;;;;5099214;28;20419;-61
2022/05/13 10:38:51;;;;;;;17.00;6.67;;;14.10;99.90;;;;;;5104177;28;20429;-55
2022/05/13 10:41:38;;;;;;;18.47;6.00;;;14.00;1.00;;;;;;5103900;28;20414;-55
2022/05/13 10:44:24;;;;;;;11.23;5.47;;;14.20;1.00;;;;;;5099688;28;20421;-55
2022/05/13 10:47:08;;;;;;;8.90;4.60;;;15.20;1.00;;;;;;5103453;28;20434;-54
2022/05/13 10:49:38;;;;;;;10.47;5.10;;;16.50;1.00;;;;;;5096339;28;20510;-54
2022/05/13 10:52:25;;;;;;;8.70;4.20;;;17.40;99.90;;;;;;5099232;28;21224;-54
2022/05/13 10:55:09;;;;;;;7.53;4.10;;;17.70;99.90;;;;;;5096850;28;20589;-54
2022/05/13 10:58:01;;;;;;;16.10;4.70;;;17.50;99.90;;;;;;5105264;28;20441;-55
2022/05/13 11:00:34;;;;;;;9.17;4.67;;;17.10;99.90;;;;;;5105842;28;21263;-55
2022/05/13 11:03:21;;;;;;;10.37;5.00;;;16.80;99.90;;;;;;5095618;28;20446;-56
2022/05/13 11:06:22;;;;;;;9.70;5.53;;;16.60;99.90;;;;;;5104752;28;20410;-55
2022/05/13 11:09:04;;;;;;;13.80;5.43;;;16.40;99.90;;;;;;5087880;28;20438;-62
2022/05/13 11:11:41;;;;;;;9.43;5.10;;;16.40;99.90;;;;;;5104790;28;20430;-55
2022/05/13 11:14:34;;;;;;;12.73;5.37;;;16.80;99.90;;;;;;5106163;28;20825;-54
2022/05/13 11:17:18;;;;;;;10.60;5.03;;;17.70;99.90;;;;;;5111555;28;20489;-54
2022/05/13 11:20:09;;;;;;;12.10;4.60;;;18.60;99.90;;;;;;5107072;28;20498;-55
2022/05/13 11:22:46;;;;;;;12.17;5.13;;;18.20;99.90;;;;;;5106858;28;20930;-55
2022/05/13 11:28:50;;;;;;;7.30;3.97;;;17.00;99.90;;;;;;5099445;28;20456;-54
2022/05/13 11:31:40;;;;;;;8.13;4.30;;;16.20;99.90;;;;;;5109113;27;20982;-54
2022/05/13 11:34:30;;;;;;;7.60;4.30;;;16.20;99.90;;;;;;5106224;27;20466;-54
2022/05/13 11:37:05;;;;;;;10.03;4.90;;;16.80;99.90;;;;;;5108817;27;20528;-53
2022/05/13 11:39:49;;;;;;;10.70;3.67;;;17.30;99.90;;;;;;5105488;28;20510;-55
2022/05/13 11:42:31;;;;;;;7.80;3.67;;;17.60;99.90;;;;;;5103910;28;20430;-54
2022/05/13 11:45:28;;;;;;;8.03;3.60;;;17.80;99.90;;;;;;5107390;27;20955;-54
2022/05/13 11:48:10;;;;;;;7.47;3.97;;;17.50;99.90;;;;;;5107856;27;20856;-54
2022/05/13 11:50:36;;;;;;;6.87;4.40;;;16.70;99.90;;;;;;5107691;28;20445;-54
2022/05/13 11:53:02;;;;;;;11.23;4.50;;;16.20;99.90;;;;;;5104524;28;20427;-55
2022/05/13 11:55:47;;;;;;;7.03;4.20;;;15.90;99.90;;;;;;5110332;28;20196;-54
2022/05/13 11:58:45;;;;;;;8.80;5.17;;;16.00;99.90;;;;;;5104106;28;20840;-54
2022/05/13 12:01:11;;;;;;;7.23;4.33;;;16.30;99.90;;;;;;5106394;28;20559;-53
2022/05/13 12:03:38;;;;;;;8.67;4.20;;;16.60;99.90;;;;;;5107514;28;20524;-55
2022/05/13 12:06:06;;;;;;;5.47;3.70;;;17.50;99.90;;;;;;5105128;28;20203;-53
2022/05/13 12:08:42;;;;;;;6.30;3.90;;;18.80;99.90;;;;;;5098697;28;20444;-54
2022/05/13 12:11:59;;;;;;;6.97;3.97;;;19.60;99.90;;;;;;5105350;27;20477;-54
2022/05/13 12:14:39;;;;;;;4.70;3.13;;;21.00;99.90;;;;;;5091444;28;20520;-53
2022/05/13 12:17:07;;;;;;;8.00;3.87;;;20.90;99.90;;;;;;5112022;28;20434;-53
2022/05/13 12:19:40;;;;;;;7.40;3.40;;;19.90;99.90;;;;;;5107680;27;20528;-53
2022/05/13 12:22:26;;;;;;;3.83;3.00;;;19.40;99.90;;;;;;5105158;28;20463;-53
2022/05/13 12:25:03;;;;;;;6.60;3.20;;;18.70;99.90;;;;;;5100859;28;20962;-53
2022/05/13 12:27:36;;;;;;;5.60;3.40;;;17.90;99.90;;;;;;5104373;28;20773;-54
2022/05/13 12:30:10;;;;;;;8.90;3.30;;;17.30;99.90;;;;;;5108363;28;20442;-54
2022/05/13 12:32:45;;;;;;;5.37;3.27;;;17.00;99.90;;;;;;5105812;28;20504;-54
2022/05/13 12:38:10;;;;;;;7.70;3.10;;;17.50;99.90;;;;;;5107937;28;20428;-53
2022/05/13 12:40:45;;;;;;;9.97;3.07;;;18.30;99.90;;;;;;5102859;28;20487;-54
2022/05/13 12:43:18;;;;;;;5.97;3.10;;;18.40;99.90;;;;;;5106205;28;20457;-53
2022/05/13 12:45:59;;;;;;;8.10;3.23;;;18.10;99.90;;;;;;5107814;28;20579;-54
2022/05/13 12:48:25;;;;;;;4.20;3.27;;;17.60;99.90;;;;;;5107849;28;20987;-53
2022/05/13 12:51:10;;;;;;;7.60;3.17;;;17.20;99.90;;;;;;5101176;28;20462;-53
2022/05/13 12:53:47;;;;;;;11.47;4.20;;;16.80;99.90;;;;;;5105253;28;20647;-54
2022/05/13 12:56:30;;;;;;;9.27;3.87;;;16.10;99.90;;;;;;5103318;28;20492;-54
2022/05/13 12:59:22;;;;;;;9.63;3.60;;;16.00;99.90;;;;;;5108191;28;20426;-54
2022/05/13 13:01:55;;;;;;;4.70;3.33;;;16.40;99.90;;;;;;5103638;28;20915;-54
2022/05/13 13:04:24;;;;;;;9.17;3.60;;;16.70;99.90;;;;;;5086543;28;20901;-55
2022/05/13 13:06:52;;;;;;;4.40;3.30;;;16.60;99.90;;;;;;5101140;28;20422;-54
2022/05/13 13:09:17;;;;;;;9.83;3.90;;;16.40;99.90;;;;;;5104750;27;20468;-54
2022/05/13 13:12:27;;;;;;;6.50;3.60;;;16.00;99.90;;;;;;5108206;28;20438;-54
2022/05/13 13:15:08;;;;;;;6.50;3.07;;;15.80;99.90;;;;;;5060090;28;20564;-55
2022/05/13 13:17:48;;;;;;;8.53;3.63;;;15.60;99.90;;;;;;5101360;28;20437;-54
2022/05/13 13:20:18;;;;;;;7.60;3.40;;;15.70;99.90;;;;;;5098476;28;20477;-54
2022/05/13 13:22:53;;;;;;;8.37;3.70;;;15.90;99.90;;;;;;5103697;28;20484;-54
2022/05/13 13:25:34;;;;;;;10.00;3.63;;;16.10;99.90;;;;;;5100803;28;20429;-55
2022/05/13 13:28:02;;;;;;;5.57;3.43;;;16.20;99.90;;;;;;5097516;28;20879;-54
2022/05/13 13:30:30;;;;;;;7.37;3.00;;;16.20;99.90;;;;;;5096469;28;20435;-54
2022/05/13 13:32:56;;;;;;;6.70;2.67;;;16.30;99.90;;;;;;5100118;28;20414;-54